createdAt,value
2023-05-21T00:02:19.727Z,80.37
2023-05-21T00:04:46.414Z,80.93
2023-05-21T00:07:13.412Z,81.43
2023-05-21T00:09:40.010Z,81.95
2023-05-21T00:12:07.561Z,81.21
2023-05-21T00:14:34.528Z,81.37
2023-05-21T00:17:01.098Z,81.58
2023-05-21T00:19:27.720Z,82.45
2023-05-21T00:21:54.749Z,82.20
2023-05-21T00:24:21.365Z,82.01
2023-05-21T00:26:47.952Z,81.68
2023-05-21T00:29:14.438Z,81.78
2023-05-21T00:31:41.010Z,82.42
2023-05-21T00:34:07.548Z,82.46
2023-05-21T00:36:34.633Z,82.12
2023-05-21T00:39:02.278Z,82.10
2023-05-21T00:41:30.095Z,82.46
2023-05-21T00:43:57.158Z,82.50
2023-05-21T00:46:23.916Z,82.09
2023-05-21T00:48:50.966Z,82.89
2023-05-21T00:51:18.526Z,82.53
2023-05-21T00:53:45.911Z,82.82
2023-05-21T00:56:12.662Z,82.61
2023-05-21T00:58:39.377Z,82.66
2023-05-21T01:01:06.784Z,82.60
2023-05-21T01:03:38.295Z,82.62
2023-05-21T01:06:06.419Z,82.79
2023-05-21T01:08:37.570Z,82.54
2023-05-21T01:11:05.356Z,83.43
2023-05-21T01:13:34.164Z,82.64
2023-05-21T01:16:01.203Z,82.59
2023-05-21T01:18:27.732Z,83.38
2023-05-21T01:20:55.164Z,82.47
2023-05-21T01:23:21.713Z,83.41
2023-05-21T01:25:48.177Z,83.86
2023-05-21T01:28:14.870Z,83.46
2023-05-21T01:30:43.452Z,83.38
2023-05-21T01:33:26.706Z,84.39
2023-05-21T01:35:56.246Z,84.52
2023-05-21T01:38:29.896Z,84.18
2023-05-21T01:41:03.607Z,83.87
2023-05-21T01:43:35.535Z,84.13
2023-05-21T01:46:02.322Z,84.37
2023-05-21T01:48:29.938Z,83.72
2023-05-21T01:50:58.575Z,83.93
2023-05-21T01:53:25.203Z,83.78
2023-05-21T01:55:51.724Z,83.60
2023-05-21T01:58:18.853Z,83.85
2023-05-21T02:00:45.420Z,83.59
2023-05-21T02:03:15.101Z,83.66
2023-05-21T02:05:41.725Z,83.10
2023-05-21T02:08:11.224Z,83.17
2023-05-21T02:10:37.706Z,83.18
2023-05-21T02:13:04.347Z,83.19
2023-05-21T02:15:30.835Z,83.27
2023-05-21T02:17:58.267Z,83.20
2023-05-21T02:20:24.970Z,83.12
2023-05-21T02:22:51.551Z,83.16
2023-05-21T02:25:19.583Z,83.17
2023-05-21T02:27:46.912Z,82.99
2023-05-21T02:30:15.031Z,82.94
2023-05-21T02:32:43.106Z,83.01
2023-05-21T02:35:11.414Z,82.75
2023-05-21T02:37:39.559Z,82.88
2023-05-21T02:40:07.260Z,82.71
2023-05-21T02:42:34.505Z,82.75
2023-05-21T02:45:01.002Z,82.96
2023-05-21T02:47:27.540Z,83.14
2023-05-21T02:49:54.134Z,83.36
2023-05-21T02:52:23.894Z,83.19
2023-05-21T02:54:51.881Z,83.07
2023-05-21T02:57:18.390Z,83.59
2023-05-21T02:59:45.857Z,83.48
2023-05-21T03:02:12.587Z,83.11
2023-05-21T03:04:45.925Z,83.55
2023-05-21T03:07:17.906Z,83.26
2023-05-21T03:09:45.383Z,83.20
2023-05-21T03:12:12.175Z,83.16
2023-05-21T03:14:38.691Z,83.38
2023-05-21T03:17:08.161Z,83.41
2023-05-21T03:19:35.872Z,84.18
2023-05-21T03:22:03.949Z,84.04
2023-05-21T03:24:33.103Z,84.00
2023-05-21T03:27:01.454Z,84.27
2023-05-21T03:29:28.462Z,84.63
2023-05-21T03:31:56.170Z,84.60
2023-05-21T03:34:23.213Z,85.09
2023-05-21T03:36:50.481Z,85.45
2023-05-21T03:39:18.457Z,85.45
2023-05-21T03:41:45.342Z,85.37
2023-05-21T03:44:19.771Z,85.82
2023-05-21T03:46:52.313Z,86.20
2023-05-21T03:49:22.685Z,86.06
2023-05-21T03:51:51.779Z,85.91
2023-05-21T03:54:19.942Z,85.77
2023-05-21T03:56:47.595Z,85.66
2023-05-21T03:59:14.398Z,85.32
2023-05-21T04:01:42.646Z,84.98
2023-05-21T04:04:12.159Z,85.20
2023-05-21T04:06:38.815Z,84.85
2023-05-21T04:09:05.368Z,85.33
2023-05-21T04:11:32.262Z,84.94
2023-05-21T04:13:58.774Z,84.71
2023-05-21T04:16:25.373Z,84.92
2023-05-21T04:18:55.327Z,84.86
2023-05-21T04:21:23.297Z,84.66
2023-05-21T04:23:49.873Z,85.07
2023-05-21T04:26:25.184Z,84.63
2023-05-21T04:28:53.908Z,84.48
2023-05-21T04:31:21.888Z,84.76
2023-05-21T04:33:49.356Z,84.66
2023-05-21T04:36:17.135Z,84.30
2023-05-21T04:38:44.395Z,84.23
2023-05-21T04:41:10.999Z,84.25
2023-05-21T04:43:38.221Z,83.81
2023-05-21T04:46:05.869Z,83.73
2023-05-21T04:48:33.481Z,83.91
2023-05-21T04:50:59.990Z,83.80
2023-05-21T04:53:27.250Z,83.91
2023-05-21T04:55:54.190Z,83.77
2023-05-21T04:58:20.888Z,83.77
2023-05-21T05:00:47.572Z,84.13
2023-05-21T05:03:15.381Z,83.51
2023-05-21T05:05:43.442Z,83.54
2023-05-21T05:08:10.040Z,83.29
2023-05-21T05:10:36.877Z,83.26
2023-05-21T05:13:03.489Z,83.56
2023-05-21T05:15:30.460Z,83.44
2023-05-21T05:17:57.458Z,83.69
2023-05-21T05:20:23.972Z,83.47
2023-05-21T05:22:50.906Z,83.77
2023-05-21T05:25:17.503Z,83.35
2023-05-21T05:27:44.890Z,83.55
2023-05-21T05:30:11.747Z,83.24
2023-05-21T05:32:38.386Z,83.63
2023-05-21T05:35:05.935Z,83.05
2023-05-21T05:37:33.551Z,83.13
2023-05-21T05:40:00.292Z,82.67
2023-05-21T05:42:27.501Z,82.46
2023-05-21T05:44:54.506Z,82.23
2023-05-21T05:47:21.720Z,82.46
2023-05-21T05:49:48.262Z,81.82
2023-05-21T05:52:15.098Z,82.27
2023-05-21T05:54:41.562Z,81.51
2023-05-21T05:57:09.029Z,81.70
2023-05-21T05:59:37.892Z,81.66
2023-05-21T06:02:05.206Z,81.58
2023-05-21T06:04:31.783Z,81.39
2023-05-21T06:06:58.583Z,81.09
2023-05-21T06:09:25.353Z,80.88
2023-05-21T06:11:51.940Z,80.85
2023-05-21T06:14:18.472Z,81.03
2023-05-21T06:16:45.015Z,80.95
2023-05-21T06:19:12.244Z,80.75
2023-05-21T06:21:39.133Z,80.61
2023-05-21T06:24:06.844Z,80.59
2023-05-21T06:26:33.359Z,79.74
2023-05-21T06:29:00.052Z,79.18
2023-05-21T06:31:26.513Z,78.87
2023-05-21T06:33:53.950Z,78.75
2023-05-21T06:36:21.452Z,78.36
2023-05-21T06:38:47.999Z,77.59
2023-05-21T06:41:14.519Z,78.14
2023-05-21T06:43:54.044Z,77.61
2023-05-21T06:46:32.588Z,77.55
2023-05-21T06:49:00.918Z,77.64
2023-05-21T06:51:27.500Z,77.56
2023-05-21T06:53:54.911Z,77.00
2023-05-21T06:56:22.009Z,77.06
2023-05-21T06:58:48.483Z,76.91
2023-05-21T07:01:16.446Z,76.66
2023-05-21T07:03:43.386Z,76.80
2023-05-21T07:06:09.935Z,76.95
2023-05-21T07:08:36.781Z,76.64
2023-05-21T07:11:03.650Z,76.49
2023-05-21T07:13:30.330Z,75.72
2023-05-21T07:15:57.562Z,75.55
2023-05-21T07:18:25.450Z,75.34
2023-05-21T07:20:51.933Z,75.43
2023-05-21T07:23:19.001Z,76.03
2023-05-21T07:25:45.913Z,76.21
2023-05-21T07:28:13.519Z,75.21
2023-05-21T07:30:40.101Z,75.68
2023-05-21T07:33:12.623Z,75.75
2023-05-21T07:35:39.388Z,75.86
2023-05-21T07:38:06.089Z,76.15
2023-05-21T07:40:32.896Z,76.30
2023-05-21T07:43:00.964Z,75.86
2023-05-21T07:45:29.740Z,75.30
2023-05-21T07:47:56.567Z,74.93
2023-05-21T07:50:23.261Z,74.37
2023-05-21T07:52:51.169Z,74.50
2023-05-21T07:55:19.197Z,74.96
2023-05-21T07:57:47.027Z,75.23
2023-05-21T08:00:16.080Z,75.46
2023-05-21T08:02:46.855Z,75.48
2023-05-21T08:05:16.278Z,75.65
2023-05-21T08:07:43.533Z,74.69
2023-05-21T08:10:10.155Z,73.64
2023-05-21T08:12:36.688Z,73.71
2023-05-21T08:15:04.833Z,73.78
2023-05-21T08:17:34.833Z,72.53
2023-05-21T08:20:01.932Z,72.60
2023-05-21T08:22:29.979Z,72.49
2023-05-21T08:24:56.602Z,72.18
2023-05-21T08:27:23.129Z,71.87
2023-05-21T08:29:49.625Z,71.15
2023-05-21T08:32:16.236Z,71.21
2023-05-21T08:34:42.907Z,71.20
2023-05-21T08:37:22.486Z,71.35
2023-05-21T08:40:09.206Z,70.92
2023-05-21T08:42:43.894Z,71.24
2023-05-21T08:45:17.466Z,71.22
2023-05-21T08:47:44.640Z,68.48
2023-05-21T08:50:13.261Z,69.55
2023-05-21T08:52:40.507Z,69.45
2023-05-21T08:55:08.305Z,68.79
2023-05-21T08:57:36.326Z,67.86
2023-05-21T09:00:06.360Z,68.37
2023-05-21T09:02:35.307Z,67.72
2023-05-21T09:05:03.707Z,67.65
2023-05-21T09:07:31.658Z,67.67
2023-05-21T09:10:24.217Z,67.64
2023-05-21T09:12:51.002Z,65.70
2023-05-21T09:15:17.667Z,65.36
2023-05-21T09:17:47.529Z,65.03
2023-05-21T09:20:31.047Z,65.99
2023-05-21T09:23:06.633Z,65.31
2023-05-21T09:25:33.349Z,65.16
2023-05-21T09:28:14.562Z,64.41
2023-05-21T09:30:48.078Z,64.00
2023-05-21T09:33:31.341Z,64.03
2023-05-21T09:35:58.231Z,63.47
2023-05-21T09:38:26.888Z,63.85
2023-05-21T09:40:56.652Z,64.40
2023-05-21T09:43:23.560Z,63.12
2023-05-21T09:45:51.831Z,63.24
2023-05-21T09:48:42.129Z,62.38
2023-05-21T09:51:18.521Z,62.34
2023-05-21T09:53:48.478Z,63.35
2023-05-21T09:56:15.049Z,62.99
2023-05-21T09:58:41.614Z,62.79
2023-05-21T10:01:10.734Z,62.92
2023-05-21T10:03:39.756Z,62.71
2023-05-21T10:06:09.007Z,62.86
2023-05-21T10:08:36.651Z,61.98
2023-05-21T10:11:06.408Z,62.08
2023-05-21T10:13:34.375Z,62.53
2023-05-21T10:16:04.654Z,62.30
2023-05-21T10:18:32.368Z,62.86
2023-05-21T10:20:59.396Z,62.87
2023-05-21T10:23:27.080Z,62.19
2023-05-21T10:25:54.093Z,62.35
2023-05-21T10:28:20.869Z,60.75
2023-05-21T10:30:47.446Z,60.87
2023-05-21T10:33:16.677Z,60.36
2023-05-21T10:35:45.014Z,59.19
2023-05-21T10:38:11.937Z,60.15
2023-05-21T10:40:38.630Z,59.38
2023-05-21T10:43:13.639Z,59.02
2023-05-21T10:45:55.732Z,58.75
2023-05-21T10:48:43.931Z,57.94
2023-05-21T10:51:18.218Z,58.12
2023-05-21T10:54:07.902Z,58.50
2023-05-21T10:56:40.006Z,57.92
2023-05-21T10:59:12.396Z,57.76
2023-05-21T11:01:41.105Z,57.22
2023-05-21T11:04:07.665Z,57.91
2023-05-21T11:06:34.226Z,56.52
2023-05-21T11:09:13.665Z,56.99
2023-05-21T11:11:50.777Z,56.03
2023-05-21T11:14:31.427Z,56.25
2023-05-21T11:17:37.154Z,56.91
2023-05-21T11:20:16.754Z,56.44
2023-05-21T11:22:45.599Z,56.14
2023-05-21T11:25:12.608Z,55.98
2023-05-21T11:27:40.617Z,55.18
2023-05-21T11:30:15.504Z,55.73
2023-05-21T11:33:11.169Z,55.53
2023-05-21T11:35:49.970Z,54.64
2023-05-21T11:38:17.672Z,54.06
2023-05-21T11:40:54.517Z,54.85
2023-05-21T11:43:20.996Z,54.87
2023-05-21T11:45:47.622Z,54.33
2023-05-21T11:48:14.370Z,54.82
2023-05-21T11:50:42.350Z,55.09
2023-05-21T11:53:09.070Z,54.57
2023-05-21T11:55:43.492Z,54.72
2023-05-21T11:58:13.510Z,54.67
2023-05-21T12:00:40.483Z,53.33
2023-05-21T12:03:08.314Z,53.41
2023-05-21T12:06:05.470Z,53.23
2023-05-21T12:08:32.122Z,51.75
2023-05-21T12:10:59.781Z,50.51
2023-05-21T12:13:26.688Z,49.66
2023-05-21T12:15:54.087Z,49.86
2023-05-21T12:18:21.225Z,50.15
2023-05-21T12:20:47.800Z,48.21
2023-05-21T12:23:23.437Z,48.59
2023-05-21T12:25:50.983Z,48.73
2023-05-21T12:28:17.603Z,49.64
2023-05-21T12:30:44.144Z,49.04
2023-05-21T12:33:12.010Z,48.82
2023-05-21T12:35:38.529Z,48.71
2023-05-21T12:38:05.085Z,49.61
2023-05-21T12:40:37.073Z,49.91
2023-05-21T12:43:04.323Z,49.00
2023-05-21T12:45:31.908Z,49.19
2023-05-21T12:48:01.859Z,49.38
2023-05-21T12:50:28.404Z,49.81
2023-05-21T12:52:56.009Z,48.87
2023-05-21T12:55:24.624Z,48.29
2023-05-21T12:57:51.809Z,48.42
2023-05-21T13:00:23.618Z,47.90
2023-05-21T13:02:51.746Z,47.93
2023-05-21T13:05:18.696Z,48.20
2023-05-21T13:07:47.434Z,48.58
2023-05-21T13:10:16.208Z,48.34
2023-05-21T13:12:44.368Z,47.62
2023-05-21T13:15:11.541Z,47.87
2023-05-21T13:17:38.113Z,48.55
2023-05-21T13:20:08.896Z,47.56
2023-05-21T13:22:39.045Z,47.33
2023-05-21T13:25:06.324Z,47.07
2023-05-21T13:27:32.827Z,47.67
2023-05-21T13:29:59.354Z,46.15
2023-05-21T13:32:25.925Z,46.52
2023-05-21T13:34:52.506Z,46.24
2023-05-21T13:37:20.473Z,46.04
2023-05-21T13:39:47.539Z,44.38
2023-05-21T13:42:14.033Z,44.83
2023-05-21T13:44:40.695Z,43.98
2023-05-21T13:47:07.535Z,44.31
2023-05-21T13:49:34.385Z,42.06
2023-05-21T13:52:00.935Z,42.03
2023-05-21T13:54:27.690Z,41.30
2023-05-21T13:56:54.722Z,42.13
2023-05-21T13:59:21.240Z,42.52
2023-05-21T14:01:49.818Z,42.28
2023-05-21T14:04:16.947Z,41.41
2023-05-21T14:06:43.554Z,41.56
2023-05-21T14:09:10.298Z,41.44
2023-05-21T14:11:36.954Z,40.62
2023-05-21T14:14:03.548Z,41.34
2023-05-21T14:16:30.128Z,41.19
2023-05-21T14:18:57.433Z,40.83
2023-05-21T14:21:24.715Z,41.38
2023-05-21T14:23:51.472Z,41.42
2023-05-21T14:26:18.247Z,41.52
2023-05-21T14:28:45.367Z,41.76
2023-05-21T14:31:12.054Z,41.44
2023-05-21T14:33:38.969Z,41.87
2023-05-21T14:36:06.005Z,41.31
2023-05-21T14:38:32.481Z,41.73
2023-05-21T14:40:58.928Z,42.28
2023-05-21T14:43:25.461Z,42.20
2023-05-21T14:45:51.975Z,41.79
2023-05-21T14:48:22.603Z,41.99
2023-05-21T14:50:51.022Z,42.56
2023-05-21T14:53:17.977Z,42.71
2023-05-21T14:55:44.790Z,42.27
2023-05-21T14:58:11.331Z,42.57
2023-05-21T15:00:38.235Z,41.89
2023-05-21T15:03:05.111Z,42.62
2023-05-21T15:05:31.801Z,42.88
2023-05-21T15:07:58.576Z,42.79
2023-05-21T15:10:28.361Z,43.44
2023-05-21T15:12:54.970Z,43.09
2023-05-21T15:15:21.753Z,44.11
2023-05-21T15:17:49.075Z,43.51
2023-05-21T15:20:16.477Z,43.82
2023-05-21T15:22:42.997Z,43.34
2023-05-21T15:25:09.920Z,43.89
2023-05-21T15:27:36.460Z,44.39
2023-05-21T15:30:03.232Z,43.67
2023-05-21T15:32:30.659Z,43.73
2023-05-21T15:34:57.181Z,45.29
2023-05-21T15:37:23.836Z,45.76
2023-05-21T15:39:50.380Z,45.09
2023-05-21T15:42:16.963Z,44.86
2023-05-21T15:44:43.401Z,45.16
2023-05-21T15:47:09.924Z,45.93
2023-05-21T15:49:36.376Z,47.18
2023-05-21T15:52:03.008Z,47.66
2023-05-21T15:54:30.357Z,47.96
2023-05-21T15:56:56.888Z,48.87
2023-05-21T15:59:25.520Z,48.17
2023-05-21T16:01:51.920Z,47.11
2023-05-21T16:04:20.219Z,46.40
2023-05-21T16:06:47.406Z,47.83
2023-05-21T16:09:16.931Z,48.44
2023-05-21T16:11:46.242Z,49.11
2023-05-21T16:14:12.783Z,48.31
2023-05-21T16:16:39.339Z,48.95
2023-05-21T16:19:06.057Z,49.50
2023-05-21T16:21:32.985Z,48.71
2023-05-21T16:23:59.847Z,48.14
2023-05-21T16:26:26.323Z,49.56
2023-05-21T16:28:53.301Z,50.47
2023-05-21T16:31:19.933Z,49.15
2023-05-21T16:33:46.450Z,48.91
2023-05-21T16:36:13.121Z,49.02
2023-05-21T16:38:40.062Z,48.99
2023-05-21T16:41:06.715Z,48.03
2023-05-21T16:43:33.198Z,48.63
2023-05-21T16:45:59.728Z,48.95
2023-05-21T16:48:26.199Z,49.46
2023-05-21T16:50:52.667Z,49.69
2023-05-21T16:53:19.295Z,49.89
2023-05-21T16:55:45.742Z,49.53
2023-05-21T16:58:13.534Z,48.98
2023-05-21T17:00:40.039Z,49.11
2023-05-21T17:03:06.825Z,48.58
2023-05-21T17:05:33.446Z,48.15
2023-05-21T17:08:00.002Z,48.12
2023-05-21T17:10:27.410Z,49.43
2023-05-21T17:12:53.881Z,49.09
2023-05-21T17:15:20.566Z,49.22
2023-05-21T17:17:47.097Z,50.17
2023-05-21T17:20:14.000Z,50.57
2023-05-21T17:22:40.521Z,49.74
2023-05-21T17:25:07.582Z,50.14
2023-05-21T17:27:34.096Z,50.12
2023-05-21T17:30:00.518Z,50.31
2023-05-21T17:32:27.378Z,50.02
2023-05-21T17:34:53.826Z,49.69
2023-05-21T17:37:20.282Z,49.85
2023-05-21T17:39:46.752Z,49.51
2023-05-21T17:42:13.243Z,50.67
2023-05-21T17:44:39.749Z,50.02
2023-05-21T17:47:06.846Z,50.43
2023-05-21T17:49:33.520Z,50.40
2023-05-21T17:52:00.697Z,50.26
2023-05-21T17:54:27.309Z,51.02
2023-05-21T17:56:53.864Z,51.69
2023-05-21T17:59:21.346Z,51.24
2023-05-21T18:01:48.012Z,52.03
2023-05-21T18:04:14.643Z,51.59
2023-05-21T18:06:41.197Z,51.82
2023-05-21T18:09:08.005Z,51.96
2023-05-21T18:11:34.656Z,53.03
2023-05-21T18:14:01.261Z,54.06
2023-05-21T18:16:30.132Z,54.15
2023-05-21T18:18:56.830Z,54.81
2023-05-21T18:21:23.514Z,55.28
2023-05-21T18:23:50.097Z,55.27
2023-05-21T18:26:16.632Z,55.60
2023-05-21T18:28:43.137Z,55.92
2023-05-21T18:31:09.649Z,55.75
2023-05-21T18:33:36.102Z,56.02
2023-05-21T18:36:02.588Z,56.58
2023-05-21T18:38:29.048Z,56.89
2023-05-21T18:40:55.520Z,57.14
2023-05-21T18:43:22.017Z,57.30
2023-05-21T18:45:48.484Z,57.61
2023-05-21T18:48:15.999Z,57.88
2023-05-21T18:50:42.543Z,58.30
2023-05-21T18:53:09.955Z,58.59
2023-05-21T18:55:36.406Z,58.82
2023-05-21T18:58:02.837Z,59.17
2023-05-21T19:00:29.481Z,59.33
2023-05-21T19:02:56.344Z,60.03
2023-05-21T19:05:22.971Z,59.65
2023-05-21T19:07:49.550Z,60.11
2023-05-21T19:10:16.070Z,60.46
2023-05-21T19:12:43.430Z,60.81
2023-05-21T19:15:10.407Z,60.69
2023-05-21T19:17:38.942Z,61.28
2023-05-21T19:20:09.972Z,61.03
2023-05-21T19:22:37.095Z,61.15
2023-05-21T19:25:04.117Z,61.44
2023-05-21T19:27:30.708Z,61.41
2023-05-21T19:29:57.271Z,61.68
2023-05-21T19:32:23.829Z,61.69
2023-05-21T19:34:51.450Z,61.41
2023-05-21T19:37:18.022Z,61.78
2023-05-21T19:39:49.390Z,61.65
2023-05-21T19:42:17.097Z,61.91
2023-05-21T19:44:43.727Z,61.99
2023-05-21T19:47:10.266Z,61.85
2023-05-21T19:49:36.805Z,62.45
2023-05-21T19:52:04.102Z,62.09
2023-05-21T19:54:30.589Z,61.93
2023-05-21T19:56:57.250Z,62.16
2023-05-21T19:59:23.716Z,62.15
2023-05-21T20:01:50.200Z,61.91
2023-05-21T20:04:16.862Z,62.02
2023-05-21T20:06:43.512Z,62.15
2023-05-21T20:09:13.026Z,62.58
2023-05-21T20:11:39.573Z,62.54
2023-05-21T20:14:06.164Z,62.65
2023-05-21T20:16:33.378Z,63.03
2023-05-21T20:19:01.826Z,63.20
2023-05-21T20:21:34.119Z,63.43
2023-05-21T20:24:00.668Z,63.19
2023-05-21T20:26:27.265Z,64.04
2023-05-21T20:28:54.020Z,63.94
2023-05-21T20:31:21.707Z,64.30
2023-05-21T20:33:50.340Z,64.50
2023-05-21T20:36:17.801Z,64.53
2023-05-21T20:38:45.291Z,65.09
2023-05-21T20:41:12.194Z,64.85
2023-05-21T20:43:38.785Z,65.25
2023-05-21T20:46:05.746Z,65.01
2023-05-21T20:48:32.442Z,65.15
2023-05-21T20:50:59.940Z,65.48
2023-05-21T20:53:26.605Z,65.35
2023-05-21T20:55:54.578Z,65.17
2023-05-21T20:58:23.935Z,65.26
2023-05-21T21:00:50.531Z,65.14
2023-05-21T21:03:18.062Z,65.03
2023-05-21T21:05:44.860Z,64.91
2023-05-21T21:08:12.294Z,64.92
2023-05-21T21:10:41.289Z,65.06
2023-05-21T21:13:07.857Z,64.95
2023-05-21T21:15:34.836Z,64.76
2023-05-21T21:18:01.527Z,64.86
2023-05-21T21:20:28.100Z,64.98
2023-05-21T21:22:54.589Z,65.10
2023-05-21T21:25:21.316Z,64.78
2023-05-21T21:27:47.748Z,64.79
2023-05-21T21:30:14.241Z,64.70
2023-05-21T21:32:41.042Z,65.06
2023-05-21T21:35:07.825Z,65.13
2023-05-21T21:37:34.471Z,65.02
2023-05-21T21:40:00.985Z,65.09
2023-05-21T21:42:27.575Z,65.40
2023-05-21T21:44:54.039Z,65.60
2023-05-21T21:47:20.580Z,65.76
2023-05-21T21:49:48.095Z,65.49
2023-05-21T21:52:14.719Z,65.84
2023-05-21T21:54:41.190Z,66.17
2023-05-21T21:57:07.720Z,66.33
2023-05-21T21:59:34.574Z,66.34
2023-05-21T22:02:01.206Z,66.75
2023-05-21T22:04:27.913Z,66.74
2023-05-21T22:06:54.878Z,67.18
2023-05-21T22:09:22.457Z,66.96
2023-05-21T22:11:49.097Z,67.36
2023-05-21T22:14:15.877Z,67.54
2023-05-21T22:16:43.115Z,67.83
2023-05-21T22:19:10.100Z,67.98
2023-05-21T22:21:36.815Z,67.94
2023-05-21T22:24:03.989Z,68.05
2023-05-21T22:26:30.552Z,68.35
2023-05-21T22:28:59.010Z,68.34
2023-05-21T22:31:26.584Z,68.58
2023-05-21T22:33:53.184Z,68.31
2023-05-21T22:36:19.633Z,68.72
2023-05-21T22:38:46.157Z,68.77
2023-05-21T22:41:13.362Z,69.22
2023-05-21T22:43:39.817Z,69.03
2023-05-21T22:46:06.396Z,68.79
2023-05-21T22:48:34.402Z,68.88
2023-05-21T22:51:01.649Z,68.61
2023-05-21T22:53:28.201Z,68.84
2023-05-21T22:55:54.930Z,69.09
2023-05-21T22:58:21.470Z,69.56
2023-05-21T23:00:48.084Z,69.90
2023-05-21T23:03:14.654Z,70.31
2023-05-21T23:05:41.343Z,70.61
2023-05-21T23:08:08.030Z,70.50
2023-05-21T23:10:35.506Z,70.51
2023-05-21T23:13:02.125Z,70.86
2023-05-21T23:15:29.683Z,70.98
2023-05-21T23:17:56.985Z,71.29
2023-05-21T23:20:24.848Z,71.28
2023-05-21T23:22:52.156Z,71.31
2023-05-21T23:25:18.660Z,71.08
2023-05-21T23:27:45.282Z,70.92
2023-05-21T23:30:11.895Z,71.44
2023-05-21T23:32:38.440Z,71.39
2023-05-21T23:35:05.439Z,71.38
2023-05-21T23:37:32.110Z,71.66
2023-05-21T23:39:58.722Z,71.76
2023-05-21T23:42:25.239Z,71.87
2023-05-21T23:44:51.894Z,71.90
2023-05-21T23:47:18.390Z,72.06
2023-05-21T23:49:44.856Z,72.00
2023-05-21T23:52:13.007Z,72.23
2023-05-21T23:54:39.522Z,72.12
2023-05-21T23:57:06.313Z,72.14
2023-05-21T23:59:32.818Z,71.63
